createdAt,value
2023-02-04T00:00:17.179Z,0.57
2023-02-04T00:03:13.498Z,0.54
2023-02-04T00:05:52.983Z,0.44
2023-02-04T00:08:37.565Z,0.35
2023-02-04T00:11:26.347Z,0.24
2023-02-04T00:14:30.249Z,0.21
2023-02-04T00:17:10.530Z,0.14
2023-02-04T00:20:09.191Z,0.13
2023-02-04T00:22:59.392Z,0.10
2023-02-04T00:25:28.396Z,0.10
2023-02-04T00:28:04.553Z,0.07
2023-02-04T00:30:40.786Z,-0.00
2023-02-04T00:33:11.158Z,0.09
2023-02-04T00:36:01.643Z,0.07
2023-02-04T00:38:34.790Z,0.02
2023-02-04T00:41:03.078Z,-0.11
2023-02-04T00:43:34.458Z,-0.08
2023-02-04T00:46:13.760Z,-0.14
2023-02-04T00:48:44.820Z,-0.12
2023-02-04T00:51:15.804Z,-0.11
2023-02-04T00:53:49.048Z,0.02
2023-02-04T00:56:26.276Z,-0.10
2023-02-04T00:58:54.578Z,-0.18
2023-02-04T01:01:22.822Z,-0.06
2023-02-04T01:03:51.135Z,-0.06
2023-02-04T01:06:33.133Z,0.01
2023-02-04T01:09:26.321Z,0.00
2023-02-04T01:12:46.254Z,-0.07
2023-02-04T01:15:48.236Z,-0.08
2023-02-04T01:19:00.462Z,-0.09
2023-02-04T01:21:53.517Z,-0.20
2023-02-04T01:24:49.680Z,-0.17
2023-02-04T01:28:16.974Z,-0.20
2023-02-04T01:32:06.021Z,-0.15
2023-02-04T01:46:38.707Z,-0.32
2023-02-04T01:50:03.444Z,-0.40
2023-02-04T01:53:30.575Z,-0.45
2023-02-04T01:56:58.996Z,-0.55
2023-02-04T02:00:47.302Z,-0.74
2023-02-04T02:32:56.817Z,-0.91
2023-02-04T02:36:46.253Z,-0.96
2023-02-04T02:48:05.114Z,-0.66
2023-02-04T02:50:54.136Z,-0.54
2023-02-04T02:53:44.976Z,-0.52
2023-02-04T02:57:08.718Z,-0.54
2023-02-04T03:00:26.357Z,-0.47
2023-02-04T03:03:37.807Z,-0.51
2023-02-04T03:07:08.821Z,-0.62
2023-02-04T03:10:24.167Z,-0.71
2023-02-04T03:13:37.946Z,-0.67
2023-02-04T03:17:25.341Z,-0.74
2023-02-04T03:46:36.127Z,-0.99
2023-02-04T03:50:05.798Z,-1.03
2023-02-04T03:53:33.946Z,-0.98
2023-02-04T04:12:58.234Z,-1.09
2023-02-04T04:16:09.262Z,-1.18
2023-02-04T04:19:50.963Z,-1.24
2023-02-04T04:36:26.700Z,-1.19
2023-02-04T04:38:59.934Z,-1.16
2023-02-04T04:41:31.063Z,-1.20
2023-02-04T04:45:19.912Z,-1.25
2023-02-04T04:48:09.453Z,-1.28
2023-02-04T04:51:37.051Z,-1.28
2023-02-04T04:54:11.071Z,-1.30
2023-02-04T04:57:01.887Z,-1.33
2023-02-04T05:00:23.576Z,-1.32
2023-02-04T05:03:50.914Z,-1.29
2023-02-04T05:06:37.497Z,-1.27
2023-02-04T05:09:38.570Z,-1.24
2023-02-04T05:13:15.904Z,-1.12
2023-02-04T05:16:09.963Z,-1.23
2023-02-04T05:18:59.947Z,-1.20
2023-02-04T05:22:02.033Z,-1.24
2023-02-04T05:25:06.531Z,-1.17
2023-02-04T05:28:44.222Z,-1.19
2023-02-04T05:36:06.750Z,-1.19
2023-02-04T05:39:55.958Z,-1.22
2023-02-04T05:43:45.015Z,-1.19
2023-02-04T05:54:28.393Z,-1.18
2023-02-04T05:56:56.384Z,-1.21
2023-02-04T05:59:24.759Z,-1.28
2023-02-04T06:01:52.533Z,-1.34
2023-02-04T06:04:20.496Z,-1.40
2023-02-04T06:06:48.608Z,-1.43
2023-02-04T06:09:16.306Z,-1.41
2023-02-04T06:11:44.248Z,-1.36
2023-02-04T06:14:12.158Z,-1.19
2023-02-04T06:16:39.951Z,-1.22
2023-02-04T06:19:08.262Z,-1.21
2023-02-04T06:21:36.065Z,-1.12
2023-02-04T06:24:05.445Z,-1.12
2023-02-04T06:26:33.696Z,-1.11
2023-02-04T06:29:02.047Z,-1.04
2023-02-04T06:31:30.120Z,-1.11
2023-02-04T06:33:58.321Z,-1.11
2023-02-04T06:36:26.230Z,-1.09
2023-02-04T06:38:54.647Z,-0.99
2023-02-04T06:41:22.423Z,-0.99
2023-02-04T06:43:50.340Z,-0.86
2023-02-04T06:46:18.317Z,-0.84
2023-02-04T06:48:46.166Z,-0.80
2023-02-04T06:51:14.121Z,-0.74
2023-02-04T06:53:44.252Z,-0.65
2023-02-04T06:56:12.573Z,-0.57
2023-02-04T06:58:40.384Z,-0.50
2023-02-04T07:01:08.405Z,-0.45
2023-02-04T07:03:36.486Z,-0.53
2023-02-04T07:06:04.327Z,-0.47
2023-02-04T07:08:32.180Z,-0.48
2023-02-04T07:11:00.396Z,-0.25
2023-02-04T07:13:28.279Z,-0.16
2023-02-04T07:15:56.335Z,-0.10
2023-02-04T07:18:24.348Z,-0.09
2023-02-04T07:20:52.230Z,0.01
2023-02-04T07:23:20.294Z,0.04
2023-02-04T07:25:49.195Z,0.02
2023-02-04T07:28:17.200Z,-0.02
2023-02-04T07:30:45.200Z,0.12
2023-02-04T07:33:13.203Z,0.19
2023-02-04T07:35:41.234Z,0.11
2023-02-04T07:38:09.065Z,0.00
2023-02-04T07:40:37.084Z,0.06
2023-02-04T07:43:05.050Z,0.07
2023-02-04T07:45:34.314Z,0.06
2023-02-04T07:48:02.063Z,0.07
2023-02-04T07:50:30.568Z,0.15
2023-02-04T07:52:58.863Z,0.13
2023-02-04T07:55:26.788Z,0.17
2023-02-04T07:57:54.872Z,0.06
2023-02-04T08:00:22.792Z,0.07
2023-02-04T08:02:51.293Z,0.08
2023-02-04T08:05:19.219Z,0.09
2023-02-04T08:07:46.939Z,0.15
2023-02-04T08:10:14.991Z,0.11
2023-02-04T08:12:42.821Z,0.07
2023-02-04T08:15:10.654Z,0.17
2023-02-04T08:17:38.520Z,0.18
2023-02-04T08:20:06.792Z,0.28
2023-02-04T08:22:35.287Z,0.37
2023-02-04T08:25:05.377Z,0.35
2023-02-04T08:27:33.358Z,0.41
2023-02-04T08:30:01.540Z,0.48
2023-02-04T08:32:31.192Z,0.50
2023-02-04T08:34:59.409Z,0.56
2023-02-04T08:37:28.031Z,0.62
2023-02-04T08:39:56.317Z,0.53
2023-02-04T08:42:24.229Z,0.53
2023-02-04T08:44:52.228Z,0.50
2023-02-04T08:47:20.027Z,0.44
2023-02-04T08:49:47.936Z,0.46
2023-02-04T08:52:15.795Z,0.43
2023-02-04T08:54:43.514Z,0.38
2023-02-04T08:57:11.486Z,0.37
2023-02-04T08:59:39.428Z,0.37
2023-02-04T09:02:07.392Z,0.45
2023-02-04T09:04:35.191Z,0.50
2023-02-04T09:07:03.550Z,0.48
2023-02-04T09:09:31.442Z,0.56
2023-02-04T09:11:59.511Z,0.72
2023-02-04T09:14:27.816Z,0.65
2023-02-04T09:16:55.734Z,0.64
2023-02-04T09:19:26.529Z,0.67
2023-02-04T09:21:55.240Z,0.60
2023-02-04T09:24:23.783Z,0.70
2023-02-04T09:26:51.514Z,0.73
2023-02-04T09:29:19.509Z,0.78
2023-02-04T09:31:47.677Z,0.85
2023-02-04T09:34:15.815Z,0.89
2023-02-04T09:36:43.962Z,0.91
2023-02-04T09:39:12.263Z,0.96
2023-02-04T09:41:41.271Z,0.90
2023-02-04T09:44:16.677Z,0.90
2023-02-04T09:46:51.625Z,1.00
2023-02-04T09:49:19.864Z,1.00
2023-02-04T09:51:49.158Z,1.24
2023-02-04T09:54:20.223Z,1.27
2023-02-04T09:56:49.019Z,1.29
2023-02-04T09:59:20.607Z,1.23
2023-02-04T10:02:37.773Z,1.11
2023-02-04T10:05:07.106Z,1.21
2023-02-04T10:07:35.399Z,1.26
2023-02-04T10:10:03.588Z,1.25
2023-02-04T10:12:32.221Z,1.31
2023-02-04T10:15:00.633Z,1.33
2023-02-04T10:17:28.613Z,1.40
2023-02-04T10:19:56.389Z,1.37
2023-02-04T10:22:24.248Z,1.46
2023-02-04T10:24:52.218Z,1.52
2023-02-04T10:27:20.273Z,1.49
2023-02-04T10:29:58.625Z,1.46
2023-02-04T10:32:32.564Z,1.49
2023-02-04T10:35:02.741Z,1.57
2023-02-04T10:37:32.195Z,1.59
2023-02-04T10:40:00.433Z,1.68
2023-02-04T10:42:30.939Z,1.68
2023-02-04T10:44:59.462Z,1.74
2023-02-04T10:47:31.332Z,1.88
2023-02-04T10:50:07.696Z,2.05
2023-02-04T10:52:39.827Z,2.13
2023-02-04T10:55:13.593Z,2.17
2023-02-04T10:57:43.182Z,2.33
2023-02-04T11:00:31.954Z,2.19
2023-02-04T11:03:22.960Z,2.11
2023-02-04T11:05:52.346Z,2.16
2023-02-04T11:08:24.188Z,2.07
2023-02-04T11:10:59.028Z,2.08
2023-02-04T11:13:43.332Z,1.88
2023-02-04T11:16:13.239Z,1.90
2023-02-04T11:18:49.140Z,1.83
2023-02-04T11:21:28.151Z,1.86
2023-02-04T11:24:11.642Z,1.79
2023-02-04T11:26:49.546Z,1.71
2023-02-04T11:29:25.297Z,1.68
2023-02-04T11:31:59.622Z,1.59
2023-02-04T11:34:30.136Z,1.46
2023-02-04T11:37:12.440Z,1.56
2023-02-04T11:39:44.421Z,1.79
2023-02-04T11:42:41.092Z,1.91
2023-02-04T11:45:20.401Z,2.14
2023-02-04T11:47:48.479Z,2.25
2023-02-04T11:50:21.726Z,2.30
2023-02-04T11:52:49.612Z,2.22
2023-02-04T11:55:19.343Z,2.11
2023-02-04T11:57:52.615Z,2.06
2023-02-04T12:00:23.911Z,1.88
2023-02-04T12:03:06.347Z,1.91
2023-02-04T12:05:43.982Z,1.96
2023-02-04T12:08:22.494Z,2.03
2023-02-04T12:11:00.620Z,2.18
2023-02-04T12:13:30.984Z,2.22
2023-02-04T12:16:07.443Z,2.32
2023-02-04T12:18:35.561Z,2.44
2023-02-04T12:21:04.464Z,2.40
2023-02-04T12:23:33.048Z,2.32
2023-02-04T12:26:00.991Z,2.25
2023-02-04T12:28:29.178Z,2.20
2023-02-04T12:30:57.484Z,2.25
2023-02-04T12:33:25.555Z,2.16
2023-02-04T12:35:53.717Z,2.24
2023-02-04T12:38:21.647Z,2.41
2023-02-04T12:40:49.506Z,2.52
2023-02-04T12:43:17.333Z,2.67
2023-02-04T12:45:45.861Z,2.74
2023-02-04T12:48:14.276Z,2.71
2023-02-04T12:50:42.305Z,2.71
2023-02-04T12:53:10.601Z,2.66
2023-02-04T12:55:38.546Z,2.45
2023-02-04T12:58:06.348Z,2.27
2023-02-04T13:00:34.426Z,2.13
2023-02-04T13:03:02.599Z,2.00
2023-02-04T13:05:31.674Z,1.97
2023-02-04T13:07:59.852Z,1.85
2023-02-04T13:10:27.866Z,1.87
2023-02-04T13:12:55.856Z,1.85
2023-02-04T13:15:23.833Z,1.93
2023-02-04T13:17:52.368Z,1.92
2023-02-04T13:20:20.456Z,1.97
2023-02-04T13:22:48.371Z,2.02
2023-02-04T13:25:16.317Z,1.97
2023-02-04T13:27:44.374Z,1.81
2023-02-04T13:30:15.154Z,1.77
2023-02-04T13:32:43.661Z,1.65
2023-02-04T13:35:12.060Z,1.63
2023-02-04T13:37:40.025Z,1.54
2023-02-04T13:40:09.599Z,1.45
2023-02-04T13:42:37.593Z,1.41
2023-02-04T13:45:07.866Z,1.36
2023-02-04T13:47:35.800Z,1.38
2023-02-04T13:50:04.125Z,1.41
2023-02-04T13:52:33.639Z,1.46
2023-02-04T13:55:01.745Z,1.57
2023-02-04T13:57:31.036Z,1.65
2023-02-04T13:59:59.396Z,1.78
2023-02-04T14:02:27.466Z,1.90
2023-02-04T14:04:55.339Z,1.89
2023-02-04T14:07:23.343Z,2.01
2023-02-04T14:09:51.190Z,2.16
2023-02-04T14:12:19.015Z,2.17
2023-02-04T14:14:46.852Z,2.31
2023-02-04T14:17:14.822Z,2.38
2023-02-04T14:19:42.685Z,2.33
2023-02-04T14:22:12.909Z,2.18
2023-02-04T14:24:42.905Z,2.10
2023-02-04T14:27:11.421Z,1.98
2023-02-04T14:29:39.312Z,1.83
2023-02-04T14:32:07.420Z,1.70
2023-02-04T14:34:35.390Z,1.58
2023-02-04T14:37:03.443Z,1.53
2023-02-04T14:39:31.395Z,1.46
2023-02-04T14:41:59.238Z,1.44
2023-02-04T14:44:27.242Z,1.41
2023-02-04T14:46:55.228Z,1.49
2023-02-04T14:49:23.105Z,1.53
2023-02-04T14:51:51.166Z,1.45
2023-02-04T14:54:18.982Z,1.46
2023-02-04T14:56:48.000Z,1.44
2023-02-04T14:59:15.903Z,1.42
2023-02-04T15:01:46.302Z,1.32
2023-02-04T15:04:14.357Z,1.36
2023-02-04T15:06:42.250Z,1.25
2023-02-04T15:09:10.202Z,1.21
2023-02-04T15:11:38.181Z,1.17
2023-02-04T15:14:06.227Z,1.08
2023-02-04T15:16:34.226Z,0.93
2023-02-04T15:19:02.193Z,0.91
2023-02-04T15:21:30.272Z,0.85
2023-02-04T15:23:58.222Z,0.82
2023-02-04T15:26:26.076Z,0.76
2023-02-04T15:28:55.773Z,0.78
2023-02-04T15:31:26.052Z,0.84
2023-02-04T15:33:54.060Z,0.85
2023-02-04T15:36:21.974Z,0.76
2023-02-04T15:38:49.969Z,0.74
2023-02-04T15:41:18.068Z,0.67
2023-02-04T15:43:48.929Z,0.68
2023-02-04T15:46:16.950Z,0.60
2023-02-04T15:48:45.028Z,0.55
2023-02-04T15:51:13.024Z,0.46
2023-02-04T15:53:41.060Z,0.45
2023-02-04T15:56:08.904Z,0.44
2023-02-04T15:58:36.903Z,0.43
2023-02-04T16:01:05.148Z,0.46
2023-02-04T16:03:33.214Z,0.44
2023-02-04T16:06:01.094Z,0.44
2023-02-04T16:08:29.120Z,0.42
2023-02-04T16:10:57.233Z,0.39
2023-02-04T16:13:25.172Z,0.36
2023-02-04T16:15:53.129Z,0.28
2023-02-04T16:18:21.046Z,0.30
2023-02-04T16:20:48.943Z,0.28
2023-02-04T16:23:17.004Z,0.22
2023-02-04T16:25:44.919Z,0.18
2023-02-04T16:28:13.118Z,0.15
2023-02-04T16:30:41.185Z,0.15
2023-02-04T16:33:09.510Z,0.13
2023-02-04T16:35:59.925Z,0.12
2023-02-04T16:38:29.446Z,0.14
2023-02-04T16:40:58.361Z,0.13
2023-02-04T16:43:26.580Z,0.19
2023-02-04T16:45:54.442Z,0.17
2023-02-04T16:48:22.651Z,0.13
2023-02-04T16:50:50.480Z,0.16
2023-02-04T16:53:18.449Z,0.20
2023-02-04T16:55:48.085Z,0.21
2023-02-04T16:58:16.507Z,0.26
2023-02-04T17:00:44.896Z,0.28
2023-02-04T17:03:13.689Z,0.26
2023-02-04T17:05:42.282Z,0.21
2023-02-04T17:08:13.161Z,0.13
2023-02-04T17:11:00.368Z,0.01
2023-02-04T17:13:28.422Z,-0.13
2023-02-04T17:16:01.079Z,-0.12
2023-02-04T17:18:30.997Z,-0.13
2023-02-04T17:20:59.630Z,-0.20
2023-02-04T17:23:28.430Z,-0.21
2023-02-04T17:25:56.602Z,-0.19
2023-02-04T17:28:24.547Z,-0.22
2023-02-04T17:30:52.612Z,-0.25
2023-02-04T17:33:21.090Z,-0.24
2023-02-04T17:35:49.158Z,-0.27
2023-02-04T17:38:16.988Z,-0.32
2023-02-04T17:40:46.617Z,-0.35
2023-02-04T17:43:14.468Z,-0.41
2023-02-04T17:45:42.939Z,-0.48
2023-02-04T17:48:11.052Z,-0.50
2023-02-04T17:50:40.271Z,-0.50
2023-02-04T17:53:10.708Z,-0.58
2023-02-04T17:55:39.837Z,-0.66
2023-02-04T17:58:36.260Z,-0.67
2023-02-04T18:01:11.780Z,-0.65
2023-02-04T18:03:42.743Z,-0.67
2023-02-04T18:06:17.763Z,-0.71
2023-02-04T18:08:45.883Z,-0.78
2023-02-04T18:11:27.704Z,-0.79
2023-02-04T18:14:12.622Z,-0.85
2023-02-04T18:16:41.609Z,-0.86
2023-02-04T18:19:19.330Z,-0.90
2023-02-04T18:21:49.056Z,-0.94
2023-02-04T18:24:27.130Z,-0.98
2023-02-04T18:26:59.195Z,-0.97
2023-02-04T18:29:26.910Z,-1.03
2023-02-04T18:32:01.752Z,-1.06
2023-02-04T18:34:38.830Z,-1.06
2023-02-04T18:37:29.533Z,-1.07
2023-02-04T18:40:22.409Z,-1.08
2023-02-04T18:42:55.522Z,-1.14
2023-02-04T18:45:33.226Z,-1.15
2023-02-04T18:48:19.753Z,-1.14
2023-02-04T18:50:51.566Z,-1.17
2023-02-04T18:53:24.374Z,-1.28
2023-02-04T18:56:00.597Z,-1.25
2023-02-04T18:58:42.885Z,-1.31
2023-02-04T19:01:10.849Z,-1.35
2023-02-04T19:04:06.086Z,-1.39
2023-02-04T19:06:40.087Z,-1.40
2023-02-04T19:09:11.076Z,-1.45
2023-02-04T19:11:43.038Z,-1.46
2023-02-04T19:14:14.454Z,-1.48
2023-02-04T19:16:42.673Z,-1.45
2023-02-04T19:19:31.868Z,-1.46
2023-02-04T19:21:59.639Z,-1.52
2023-02-04T19:24:29.490Z,-1.58
2023-02-04T19:27:00.138Z,-1.60
2023-02-04T19:29:41.752Z,-1.63
2023-02-04T19:32:31.433Z,-1.63
2023-02-04T19:35:08.082Z,-1.62
2023-02-04T19:37:41.374Z,-1.67
2023-02-04T19:40:35.580Z,-1.67
2023-02-04T19:43:16.130Z,-1.61
2023-02-04T19:45:46.000Z,-1.62
2023-02-04T19:48:21.808Z,-1.65
2023-02-04T19:50:54.003Z,-1.69
2023-02-04T19:53:29.451Z,-1.70
2023-02-04T19:55:57.608Z,-1.68
2023-02-04T19:58:41.819Z,-1.77
2023-02-04T20:01:14.504Z,-1.75
2023-02-04T20:03:48.144Z,-1.74
2023-02-04T20:06:30.948Z,-1.78
2023-02-04T20:09:14.087Z,-1.82
2023-02-04T20:12:06.366Z,-1.83
2023-02-04T20:14:52.094Z,-1.82
2023-02-04T20:17:43.107Z,-1.82
2023-02-04T20:20:18.545Z,-1.83
2023-02-04T20:22:57.021Z,-1.85
2023-02-04T20:25:48.228Z,-1.82
2023-02-04T20:28:34.447Z,-1.80
2023-02-04T20:31:04.486Z,-1.86
2023-02-04T20:33:43.391Z,-1.94
2023-02-04T20:36:28.300Z,-1.92
2023-02-04T20:39:17.248Z,-1.95
2023-02-04T20:41:45.329Z,-1.96
2023-02-04T20:44:18.808Z,-1.96
2023-02-04T20:46:46.894Z,-2.00
2023-02-04T20:49:23.247Z,-2.05
2023-02-04T20:51:56.252Z,-2.03
2023-02-04T20:54:24.145Z,-1.99
2023-02-04T20:56:51.960Z,-2.00
2023-02-04T20:59:34.019Z,-1.99
2023-02-04T21:02:14.265Z,-2.04
2023-02-04T21:04:47.120Z,-2.09
2023-02-04T21:07:20.424Z,-2.07
2023-02-04T21:09:49.356Z,-2.11
2023-02-04T21:12:17.500Z,-2.09
2023-02-04T21:14:45.621Z,-2.09
2023-02-04T21:17:13.570Z,-2.11
2023-02-04T21:19:41.567Z,-2.14
2023-02-04T21:22:09.533Z,-2.07
2023-02-04T21:24:37.424Z,-2.09
2023-02-04T21:27:05.282Z,-2.10
2023-02-04T21:29:33.231Z,-2.02
2023-02-04T21:32:01.127Z,-2.03
2023-02-04T21:34:29.117Z,-2.03
2023-02-04T21:36:57.151Z,-2.00
2023-02-04T21:39:25.232Z,-1.98
2023-02-04T21:42:10.200Z,-1.94
2023-02-04T21:44:40.235Z,-1.88
2023-02-04T21:47:08.112Z,-1.90
2023-02-04T21:49:39.483Z,-1.80
2023-02-04T21:52:08.714Z,-1.60
2023-02-04T21:54:36.704Z,-1.50
2023-02-04T21:57:05.276Z,-1.44
2023-02-04T21:59:33.734Z,-1.37
2023-02-04T22:02:01.928Z,-1.35
2023-02-04T22:04:29.971Z,-1.39
2023-02-04T22:06:57.970Z,-1.33
2023-02-04T22:09:25.903Z,-1.33
2023-02-04T22:11:53.863Z,-1.39
2023-02-04T22:14:40.314Z,-1.37
2023-02-04T22:17:08.288Z,-1.40
2023-02-04T22:19:36.740Z,-1.41
2023-02-04T22:22:04.688Z,-1.35
2023-02-04T22:24:32.796Z,-1.33
2023-02-04T22:27:00.608Z,-1.29
2023-02-04T22:29:33.511Z,-1.31
2023-02-04T22:32:01.407Z,-1.31
2023-02-04T22:34:29.578Z,-1.36
2023-02-04T22:36:58.012Z,-1.50
2023-02-04T22:39:25.849Z,-1.57
2023-02-04T22:41:54.096Z,-1.60
2023-02-04T22:44:21.987Z,-1.61
2023-02-04T22:46:49.778Z,-1.63
2023-02-04T22:49:17.722Z,-1.68
2023-02-04T22:51:45.634Z,-1.70
2023-02-04T22:54:13.714Z,-1.77
2023-02-04T22:56:41.548Z,-1.79
2023-02-04T22:59:09.453Z,-1.78
2023-02-04T23:01:37.467Z,-1.79
2023-02-04T23:04:05.390Z,-1.82
2023-02-04T23:06:33.882Z,-1.84
2023-02-04T23:09:01.835Z,-1.84
2023-02-04T23:11:29.963Z,-1.88
2023-02-04T23:13:57.831Z,-1.90
2023-02-04T23:16:25.833Z,-1.90
2023-02-04T23:18:53.916Z,-1.94
2023-02-04T23:21:23.066Z,-1.96
2023-02-04T23:23:52.321Z,-1.99
2023-02-04T23:26:21.111Z,-2.02
2023-02-04T23:28:49.322Z,-2.02
2023-02-04T23:31:17.375Z,-2.00
2023-02-04T23:33:45.141Z,-1.98
2023-02-04T23:36:13.190Z,-2.05
2023-02-04T23:38:41.304Z,-2.04
2023-02-04T23:41:09.332Z,-2.02
2023-02-04T23:43:37.251Z,-2.02
2023-02-04T23:46:05.396Z,-2.03
2023-02-04T23:48:33.277Z,-2.05
2023-02-04T23:51:01.165Z,-2.07
2023-02-04T23:53:29.195Z,-2.09
2023-02-04T23:55:57.155Z,-2.10
2023-02-04T23:58:25.077Z,-2.13
